Time;durP1;ratioP1;P1;durP2;ratioP2;P2;SDS_P1;SDS_P2;PMS_P1;PMS_P2;Temp;Humidity;BMP_temperature;BMP_pressure;BME280_temperature;BME280_humidity;BME280_pressure;Samples;Min_cycle;Max_cycle;Signal;HPM_P1;HPM_P2
2022/09/04 00:02:19;;;;;;;6.30;3.70;;;16.30;99.90;;;;;;4977624;28;20200;-85
2022/09/04 00:05:20;;;;;;;4.20;3.10;;;16.30;99.90;;;;;;4978262;28;20184;-86
2022/09/04 00:08:05;;;;;;;5.17;3.23;;;16.30;99.90;;;;;;4947464;28;20195;-85
2022/09/04 00:10:39;;;;;;;4.87;3.57;;;16.30;99.90;;;;;;4986667;28;20179;-85
2022/09/04 00:13:11;;;;;;;4.57;3.67;;;16.30;99.90;;;;;;4996723;28;20202;-85
2022/09/04 00:16:18;;;;;;;3.37;3.00;;;16.30;99.90;;;;;;4995545;28;20233;-86
2022/09/04 00:19:12;;;;;;;3.33;3.03;;;16.30;99.90;;;;;;4975849;28;20191;-85
2022/09/04 00:21:42;;;;;;;3.53;3.10;;;16.30;99.90;;;;;;4996967;28;20219;-85
2022/09/04 00:24:18;;;;;;;5.37;3.13;;;16.30;99.90;;;;;;5013602;28;20172;-85
2022/09/04 00:27:03;;;;;;;3.73;3.33;;;16.20;99.90;;;;;;4997000;28;20186;-85
2022/09/04 00:29:52;;;;;;;3.73;3.33;;;16.20;99.90;;;;;;4997118;28;20191;-85
2022/09/04 00:32:37;;;;;;;3.47;3.17;;;16.20;99.90;;;;;;4996996;28;20204;-85
2022/09/04 00:35:15;;;;;;;4.37;3.03;;;16.30;99.90;;;;;;4996612;28;20191;-85
2022/09/04 00:37:50;;;;;;;3.67;3.30;;;16.20;99.90;;;;;;4996629;28;20219;-85
2022/09/04 00:40:25;;;;;;;5.00;3.13;;;16.20;99.90;;;;;;4988929;28;20211;-85
2022/09/04 00:43:10;;;;;;;4.17;3.77;;;16.20;99.90;;;;;;4991841;28;20175;-85
2022/09/04 00:46:11;;;;;;;3.83;3.43;;;16.20;99.90;;;;;;4996758;28;20237;-85
2022/09/04 00:48:43;;;;;;;3.60;3.23;;;16.20;99.90;;;;;;4958242;28;20245;-85
2022/09/04 00:51:18;;;;;;;3.93;3.10;;;16.10;99.90;;;;;;4996742;28;20214;-86
2022/09/04 00:53:56;;;;;;;3.57;3.27;;;16.00;99.90;;;;;;4996581;28;20214;-85
2022/09/04 00:56:31;;;;;;;3.63;3.33;;;16.00;99.90;;;;;;4996206;28;20190;-85
2022/09/04 00:59:32;;;;;;;4.00;3.10;;;16.00;99.90;;;;;;4996293;28;20213;-85
2022/09/04 01:02:10;;;;;;;3.20;2.87;;;15.90;99.90;;;;;;4966627;28;20219;-85
2022/09/04 01:04:56;;;;;;;5.10;2.93;;;15.90;99.90;;;;;;4996784;28;20175;-85
2022/09/04 01:08:01;;;;;;;4.03;3.63;;;15.80;99.90;;;;;;4994570;28;20184;-85
2022/09/04 01:10:33;;;;;;;3.93;3.30;;;15.70;99.90;;;;;;4995289;28;20191;-85
2022/09/04 01:13:11;;;;;;;5.20;3.10;;;15.60;99.90;;;;;;4996077;28;20171;-85
2022/09/04 01:15:46;;;;;;;3.90;3.50;;;15.60;99.90;;;;;;4996302;28;20378;-85
2022/09/04 01:18:37;;;;;;;4.10;3.70;;;15.60;99.90;;;;;;4996001;28;20174;-85
2022/09/04 01:21:21;;;;;;;4.37;3.63;;;15.60;99.90;;;;;;5012477;28;20225;-85
2022/09/04 01:24:02;;;;;;;3.97;3.40;;;15.60;99.90;;;;;;4995150;28;20176;-85
2022/09/04 01:26:34;;;;;;;4.13;3.60;;;15.50;99.90;;;;;;4996307;28;20173;-85
2022/09/04 01:29:27;;;;;;;7.60;3.80;;;15.40;99.90;;;;;;4995836;28;20183;-85
2022/09/04 01:32:23;;;;;;;3.37;3.07;;;15.40;99.90;;;;;;4994891;28;20195;-85
2022/09/04 01:35:19;;;;;;;4.67;3.20;;;15.40;99.90;;;;;;4995604;28;20255;-85
2022/09/04 01:38:10;;;;;;;4.93;3.03;;;15.30;99.90;;;;;;4995630;28;20229;-86
2022/09/04 01:40:45;;;;;;;2.87;2.60;;;15.30;99.90;;;;;;4985385;28;20211;-85
2022/09/04 01:43:12;;;;;;;3.03;2.77;;;15.40;99.90;;;;;;5009772;28;20178;-85
2022/09/04 01:45:51;;;;;;;3.00;2.70;;;15.40;99.90;;;;;;4995784;28;20282;-86
2022/09/04 01:48:26;;;;;;;3.60;2.73;;;15.40;99.90;;;;;;4995476;28;20206;-86
2022/09/04 01:50:57;;;;;;;3.50;3.20;;;15.40;99.90;;;;;;4995377;28;20206;-85
2022/09/04 01:53:28;;;;;;;3.60;3.07;;;15.30;99.90;;;;;;4995348;28;20182;-85
2022/09/04 01:56:33;;;;;;;3.23;2.43;;;15.30;99.90;;;;;;4994667;28;20179;-85
2022/09/04 01:59:12;;;;;;;3.93;2.43;;;15.20;99.90;;;;;;4994818;28;20238;-85
2022/09/04 02:01:53;;;;;;;3.00;2.73;;;15.10;99.90;;;;;;4994667;28;20260;-85
2022/09/04 02:04:35;;;;;;;3.27;2.97;;;15.10;99.90;;;;;;4995553;28;20178;-85
2022/09/04 02:07:34;;;;;;;3.20;2.90;;;15.10;99.90;;;;;;4995058;28;20179;-85
2022/09/04 02:10:15;;;;;;;3.57;2.90;;;15.10;99.90;;;;;;4995424;28;20202;-85
2022/09/04 02:12:49;;;;;;;4.40;3.10;;;15.10;99.90;;;;;;4995398;28;20199;-85
2022/09/04 02:15:51;;;;;;;3.00;2.30;;;15.00;99.90;;;;;;4995259;28;20182;-85
2022/09/04 02:18:46;;;;;;;2.40;2.20;;;15.00;99.90;;;;;;4995321;28;20197;-85
2022/09/04 02:21:38;;;;;;;2.77;2.20;;;14.80;99.90;;;;;;4995374;28;20218;-85
2022/09/04 02:24:34;;;;;;;2.77;2.13;;;14.80;99.90;;;;;;4965869;28;20191;-85
2022/09/04 02:27:19;;;;;;;2.40;2.20;;;14.70;99.90;;;;;;4995152;28;20175;-85
2022/09/04 02:30:00;;;;;;;4.10;2.30;;;14.70;99.90;;;;;;4995223;28;20254;-85
2022/09/04 02:32:52;;;;;;;2.73;2.53;;;14.70;99.90;;;;;;4995266;28;20223;-85
2022/09/04 02:35:27;;;;;;;2.67;2.47;;;14.60;99.90;;;;;;4998216;28;20191;-85
2022/09/04 02:38:11;;;;;;;2.80;2.23;;;14.60;99.90;;;;;;4999108;28;20170;-85
2022/09/04 02:41:04;;;;;;;2.83;2.37;;;14.60;99.90;;;;;;5009091;28;20210;-85
2022/09/04 02:43:31;;;;;;;3.47;2.37;;;14.60;99.90;;;;;;4979574;28;20176;-85
2022/09/04 02:46:20;;;;;;;3.37;2.10;;;14.60;99.90;;;;;;4979411;28;20202;-85
2022/09/04 02:49:08;;;;;;;2.57;1.90;;;14.60;99.90;;;;;;4979454;28;20223;-85
2022/09/04 02:51:53;;;;;;;2.27;2.07;;;14.60;99.90;;;;;;4979197;28;20203;-85
2022/09/04 02:54:40;;;;;;;2.00;1.90;;;14.70;99.90;;;;;;4979235;28;20183;-85
2022/09/04 02:57:38;;;;;;;1.90;1.80;;;14.70;99.90;;;;;;4979071;28;20180;-85
2022/09/04 03:00:18;;;;;;;1.90;1.80;;;14.60;99.90;;;;;;4979238;28;20234;-85
2022/09/04 03:03:01;;;;;;;2.13;1.93;;;14.60;99.90;;;;;;4978912;28;20207;-85
2022/09/04 03:05:40;;;;;;;4.10;1.93;;;14.60;99.90;;;;;;4979449;28;20164;-85
2022/09/04 03:08:34;;;;;;;2.07;1.97;;;14.60;99.90;;;;;;4994488;28;20175;-85
2022/09/04 03:11:13;;;;;;;2.13;2.00;;;14.60;99.90;;;;;;5014899;28;20218;-84
2022/09/04 03:13:43;;;;;;;2.43;2.20;;;14.70;99.90;;;;;;4998651;28;20186;-85
2022/09/04 03:16:20;;;;;;;2.37;2.17;;;14.60;99.90;;;;;;5014912;28;20555;-85
2022/09/04 03:19:15;;;;;;;2.33;2.13;;;14.50;99.90;;;;;;4997792;28;20189;-85
2022/09/04 03:21:52;;;;;;;2.60;2.40;;;14.50;99.90;;;;;;4997952;28;20234;-85
2022/09/04 03:24:41;;;;;;;2.90;2.70;;;14.40;99.90;;;;;;4997640;28;20202;-85
2022/09/04 03:27:12;;;;;;;2.80;2.60;;;14.40;99.90;;;;;;4997918;28;20171;-85
2022/09/04 03:29:55;;;;;;;2.87;2.60;;;14.30;99.90;;;;;;4997412;28;20192;-85
2022/09/04 03:32:53;;;;;;;3.00;2.30;;;14.30;99.90;;;;;;4996983;28;20206;-85
2022/09/04 03:35:34;;;;;;;3.47;2.73;;;14.30;99.90;;;;;;4997252;28;20190;-85
2022/09/04 03:38:35;;;;;;;3.10;2.77;;;14.30;99.90;;;;;;4998036;28;20187;-85
2022/09/04 03:41:22;;;;;;;3.10;2.73;;;14.30;99.90;;;;;;5011734;28;20260;-85
2022/09/04 03:44:17;;;;;;;2.80;2.60;;;14.20;99.90;;;;;;4978419;28;20175;-85
2022/09/04 03:47:04;;;;;;;2.90;2.60;;;14.20;99.90;;;;;;4977273;28;20262;-85
2022/09/04 03:49:42;;;;;;;3.27;2.97;;;14.20;99.90;;;;;;4978453;28;20184;-85
2022/09/04 03:52:18;;;;;;;2.70;2.50;;;14.20;99.90;;;;;;4994319;28;20286;-85
2022/09/04 03:55:03;;;;;;;4.33;2.57;;;14.20;99.90;;;;;;4977124;28;20184;-85
2022/09/04 03:57:49;;;;;;;3.10;2.43;;;14.20;99.90;;;;;;4994073;28;20187;-85
2022/09/04 04:00:21;;;;;;;2.73;2.50;;;14.20;99.90;;;;;;4976754;28;20204;-85
2022/09/04 04:03:19;;;;;;;2.40;2.20;;;14.20;99.90;;;;;;4977164;28;20230;-85
2022/09/04 04:05:51;;;;;;;2.43;2.23;;;14.10;99.90;;;;;;4960833;28;20216;-85
2022/09/04 04:09:10;;;;;;;3.07;2.63;;;14.10;99.90;;;;;;4977884;28;20176;-85
2022/09/04 04:12:11;;;;;;;2.90;2.43;;;14.00;99.90;;;;;;4954914;28;20218;-85
2022/09/04 04:14:59;;;;;;;3.10;1.93;;;13.80;99.90;;;;;;4997357;28;20182;-85
2022/09/04 04:18:04;;;;;;;2.20;2.10;;;13.80;99.90;;;;;;4997126;28;20175;-85
2022/09/04 04:20:49;;;;;;;1.87;1.77;;;13.80;99.90;;;;;;4996880;28;20216;-85
2022/09/04 04:23:28;;;;;;;2.30;2.03;;;13.80;99.90;;;;;;4997043;28;20168;-85
2022/09/04 04:26:13;;;;;;;6.03;2.40;;;13.80;99.90;;;;;;4997389;28;20271;-85
2022/09/04 04:29:07;;;;;;;2.53;2.33;;;13.80;99.90;;;;;;4996734;28;20262;-85
2022/09/04 04:32:12;;;;;;;3.97;2.40;;;13.80;99.90;;;;;;4997022;28;20199;-85
2022/09/04 04:35:02;;;;;;;3.83;2.00;;;13.70;99.90;;;;;;4996914;28;20194;-85
2022/09/04 04:38:01;;;;;;;2.53;1.87;;;13.60;99.90;;;;;;4996894;28;20182;-85
2022/09/04 04:40:51;;;;;;;2.30;2.10;;;13.60;99.90;;;;;;4988283;28;20207;-85
2022/09/04 04:43:28;;;;;;;2.00;1.90;;;13.60;99.90;;;;;;5012152;28;20195;-85
2022/09/04 04:46:00;;;;;;;2.00;1.90;;;13.70;99.90;;;;;;4996843;28;20167;-85
2022/09/04 04:48:54;;;;;;;7.27;2.57;;;13.60;99.90;;;;;;4996211;28;20197;-86
2022/09/04 04:51:59;;;;;;;3.30;2.50;;;13.50;99.90;;;;;;4996833;28;20278;-85
2022/09/04 04:54:24;;;;;;;3.13;2.20;;;13.40;99.90;;;;;;4998780;28;20180;-85
2022/09/04 04:57:16;;;;;;;2.23;2.03;;;13.40;99.90;;;;;;5009126;28;20326;-84
2022/09/04 05:00:05;;;;;;;2.73;2.53;;;13.40;99.90;;;;;;4992685;28;20253;-85
2022/09/04 05:02:59;;;;;;;2.80;2.60;;;13.40;99.90;;;;;;5016048;28;20348;-85
2022/09/04 05:06:02;;;;;;;2.50;2.30;;;13.40;99.90;;;;;;5015809;28;20233;-85
2022/09/04 05:08:47;;;;;;;2.70;2.20;;;13.40;99.90;;;;;;5015605;28;20186;-85
2022/09/04 05:11:20;;;;;;;2.80;2.60;;;13.50;99.90;;;;;;5000468;28;20210;-85
2022/09/04 05:13:56;;;;;;;2.50;2.30;;;13.50;99.90;;;;;;5011522;28;20183;-84
2022/09/04 05:17:19;;;;;;;3.10;2.90;;;13.50;99.90;;;;;;5015534;28;20182;-85
2022/09/04 05:19:56;;;;;;;2.97;2.63;;;13.60;99.90;;;;;;4939877;28;20215;-85
2022/09/04 05:22:35;;;;;;;3.00;2.80;;;13.60;99.90;;;;;;4940537;28;20204;-84
2022/09/04 05:25:19;;;;;;;4.57;3.23;;;13.60;99.90;;;;;;5003091;28;20304;-85
2022/09/04 05:28:06;;;;;;;4.30;3.23;;;13.60;99.90;;;;;;5015367;28;20181;-85
2022/09/04 05:30:47;;;;;;;4.03;3.20;;;13.60;99.90;;;;;;5015343;28;20178;-85
2022/09/04 05:33:28;;;;;;;4.37;2.83;;;13.60;99.90;;;;;;5015327;28;20178;-85
2022/09/04 05:36:20;;;;;;;4.93;3.37;;;13.60;99.90;;;;;;5014884;28;20205;-85
2022/09/04 05:39:11;;;;;;;4.27;3.33;;;13.60;99.90;;;;;;5015137;28;20225;-85
2022/09/04 05:41:46;;;;;;;11.13;3.93;;;13.60;99.90;;;;;;4996738;28;20290;-85
2022/09/04 05:44:41;;;;;;;7.67;3.93;;;13.60;99.90;;;;;;4995421;28;20179;-85
2022/09/04 05:47:47;;;;;;;5.80;3.87;;;13.60;99.90;;;;;;4981468;28;20199;-85
2022/09/04 05:50:51;;;;;;;36.23;5.17;;;13.70;99.90;;;;;;5027700;28;20182;-85
2022/09/04 05:53:44;;;;;;;3.83;3.53;;;13.70;99.90;;;;;;5028790;28;20170;-85
2022/09/04 05:56:28;;;;;;;4.30;3.90;;;13.70;99.90;;;;;;4998330;28;20274;-85
2022/09/04 05:59:07;;;;;;;4.67;3.80;;;13.80;99.90;;;;;;5025212;28;20197;-85
2022/09/04 06:01:58;;;;;;;3.50;3.20;;;13.90;99.90;;;;;;5033374;28;20240;-85
2022/09/04 06:05:08;;;;;;;3.57;3.27;;;14.00;99.90;;;;;;5005591;28;20163;-85
2022/09/04 06:07:58;;;;;;;4.63;3.33;;;14.10;99.90;;;;;;5031289;28;20254;-85
2022/09/04 06:10:48;;;;;;;3.50;3.20;;;14.20;99.90;;;;;;5007358;28;20194;-85
2022/09/04 06:13:27;;;;;;;3.40;3.10;;;14.30;99.90;;;;;;5009518;28;20189;-85
2022/09/04 06:16:08;;;;;;;3.60;3.30;;;14.40;99.90;;;;;;5010929;28;20175;-85
2022/09/04 06:18:37;;;;;;;3.77;3.47;;;14.50;99.90;;;;;;5018617;28;20182;-86
2022/09/04 06:21:06;;;;;;;4.20;3.23;;;14.60;99.90;;;;;;5014160;28;20213;-85
2022/09/04 06:24:07;;;;;;;3.50;3.20;;;14.70;99.90;;;;;;5014440;28;20178;-85
2022/09/04 06:27:06;;;;;;;3.83;3.53;;;14.80;99.90;;;;;;4977797;28;20186;-85
2022/09/04 06:29:47;;;;;;;3.80;3.50;;;14.90;99.90;;;;;;5014808;28;20203;-85
2022/09/04 06:32:13;;;;;;;4.17;3.30;;;15.00;99.90;;;;;;5014903;28;20349;-85
2022/09/04 06:34:50;;;;;;;5.30;4.17;;;15.10;99.90;;;;;;5014728;28;20222;-85
2022/09/04 06:37:45;;;;;;;4.27;3.87;;;15.20;99.90;;;;;;5014333;28;20195;-85
2022/09/04 06:40:43;;;;;;;4.90;4.10;;;15.30;99.90;;;;;;4991088;28;20215;-85
2022/09/04 06:43:30;;;;;;;4.60;4.20;;;15.40;99.90;;;;;;5003592;28;20214;-77
2022/09/04 06:46:29;;;;;;;4.30;3.90;;;15.50;99.90;;;;;;5021619;28;20175;-80
2022/09/04 06:49:28;;;;;;;6.00;4.20;;;15.60;99.90;;;;;;5011565;28;20179;-78
2022/09/04 06:52:06;;;;;;;4.93;4.23;;;15.80;99.90;;;;;;4989791;28;20203;-78
2022/09/04 06:54:38;;;;;;;3.93;3.53;;;15.90;99.90;;;;;;5003118;28;20646;-78
2022/09/04 06:57:47;;;;;;;4.77;4.33;;;16.10;99.90;;;;;;5002266;28;20178;-78
2022/09/04 07:00:21;;;;;;;6.10;3.80;;;16.20;99.90;;;;;;5007356;28;20298;-78
2022/09/04 07:03:00;;;;;;;4.10;3.70;;;16.40;99.90;;;;;;5014001;28;20257;-78
2022/09/04 07:05:48;;;;;;;4.03;3.63;;;16.50;99.90;;;;;;5008158;28;20171;-78
2022/09/04 07:08:45;;;;;;;3.83;3.43;;;16.60;99.90;;;;;;4983927;28;20199;-78
2022/09/04 07:11:29;;;;;;;4.03;3.63;;;16.80;99.90;;;;;;4994293;28;20213;-78
2022/09/04 07:14:23;;;;;;;5.00;3.43;;;16.90;99.90;;;;;;4994551;28;20630;-78
2022/09/04 07:17:15;;;;;;;3.77;3.50;;;17.00;99.90;;;;;;4994668;28;20660;-78
2022/09/04 07:20:00;;;;;;;3.70;3.40;;;17.10;99.90;;;;;;4994208;28;20310;-78
2022/09/04 07:22:51;;;;;;;4.17;3.53;;;17.30;99.90;;;;;;4997253;28;20206;-78
2022/09/04 07:25:33;;;;;;;3.42;3.15;;;17.40;99.90;;;;;;4998407;28;20319;-78
2022/09/04 07:28:40;;;;;;;4.43;3.50;;;17.60;99.90;;;;;;4997790;28;20230;-78
2022/09/04 07:31:34;;;;;;;3.78;3.40;;;17.60;99.90;;;;;;5001618;28;20206;-86
2022/09/04 07:34:02;;;;;;;3.40;3.20;;;17.70;99.90;;;;;;4994833;28;20180;-87
2022/09/04 07:37:07;;;;;;;3.53;3.22;;;17.80;99.90;;;;;;4995896;28;20278;-85
2022/09/04 07:39:49;;;;;;;4.57;3.55;;;18.00;99.90;;;;;;4995961;28;20191;-86
2022/09/04 07:42:28;;;;;;;5.10;3.63;;;18.20;99.90;;;;;;4997148;28;20199;-86
2022/09/04 07:45:21;;;;;;;4.03;3.70;;;18.30;99.90;;;;;;4992676;28;20203;-86
2022/09/04 07:48:23;;;;;;;3.53;3.22;;;18.50;99.90;;;;;;4996464;28;20203;-87
2022/09/04 07:51:10;;;;;;;3.70;3.40;;;18.60;99.90;;;;;;4995778;28;20241;-85
2022/09/04 07:53:47;;;;;;;3.55;3.25;;;18.70;99.90;;;;;;4988429;28;20212;-88
2022/09/04 07:56:53;;;;;;;3.08;2.63;;;18.80;99.90;;;;;;5013482;28;20191;-89
2022/09/04 07:59:34;;;;;;;3.50;3.20;;;19.00;99.90;;;;;;5011173;28;20190;-86
2022/09/04 08:02:10;;;;;;;3.40;3.10;;;19.10;99.90;;;;;;4994075;28;20203;-87
2022/09/04 08:04:57;;;;;;;4.63;3.22;;;19.20;99.90;;;;;;4995990;28;20179;-86
2022/09/04 08:08:03;;;;;;;4.78;3.30;;;19.30;99.90;;;;;;4995854;28;20175;-86
2022/09/04 08:11:06;;;;;;;3.17;2.88;;;19.50;99.90;;;;;;4957212;28;20191;-87
2022/09/04 08:13:53;;;;;;;3.22;2.88;;;19.60;99.90;;;;;;4997765;28;20189;-87
2022/09/04 08:16:46;;;;;;;3.17;2.85;;;19.80;99.90;;;;;;4997231;28;20211;-87
2022/09/04 08:19:39;;;;;;;4.00;2.80;;;20.00;99.90;;;;;;4997309;28;20191;-86
2022/09/04 08:22:12;;;;;;;3.03;2.75;;;20.10;99.90;;;;;;4996927;28;20348;-86
2022/09/04 08:25:06;;;;;;;4.05;3.00;;;20.20;99.90;;;;;;5000533;28;20213;-86
2022/09/04 08:28:00;;;;;;;2.85;2.65;;;20.20;99.90;;;;;;5015969;28;20187;-86
2022/09/04 08:30:33;;;;;;;5.07;2.92;;;20.40;99.90;;;;;;4997041;28;20179;-87
2022/09/04 08:33:50;;;;;;;4.72;3.00;;;20.50;99.90;;;;;;4997351;28;20184;-87
2022/09/04 08:36:28;;;;;;;2.53;2.33;;;20.50;99.90;;;;;;4951361;28;20653;-88
2022/09/04 08:39:05;;;;;;;2.75;2.55;;;20.70;99.90;;;;;;4993594;28;20202;-87
2022/09/04 08:42:04;;;;;;;2.60;2.40;;;20.90;99.90;;;;;;5005222;28;20284;-87
2022/09/04 08:45:02;;;;;;;2.25;2.08;;;21.10;99.90;;;;;;4997414;28;20183;-86
2022/09/04 08:47:34;;;;;;;3.15;2.30;;;21.30;99.90;;;;;;5005089;28;20172;-87
2022/09/04 08:50:22;;;;;;;2.15;2.05;;;21.40;99.90;;;;;;5000990;28;20261;-87
2022/09/04 08:53:03;;;;;;;4.95;1.88;;;21.70;99.90;;;;;;5014105;28;20187;-87
2022/09/04 08:55:48;;;;;;;3.03;1.90;;;21.90;99.90;;;;;;5006669;28;20256;-87
2022/09/04 08:58:41;;;;;;;2.03;1.83;;;22.10;99.90;;;;;;4994824;28;20187;-87
2022/09/04 09:01:25;;;;;;;2.25;1.90;;;22.10;99.90;;;;;;4997228;28;20207;-87
2022/09/04 09:04:29;;;;;;;3.05;1.70;;;22.30;99.90;;;;;;4997412;28;20183;-87
2022/09/04 09:07:14;;;;;;;2.38;1.65;;;22.30;99.90;;;;;;4993999;28;20174;-87
2022/09/04 09:10:20;;;;;;;2.83;1.40;;;22.20;99.90;;;;;;4989769;28;20179;-87
2022/09/04 09:13:04;;;;;;;1.95;1.80;;;22.30;99.90;;;;;;4975045;28;20176;-87
2022/09/04 09:16:01;;;;;;;2.17;1.80;;;22.40;99.90;;;;;;4996962;28;20175;-87
2022/09/04 09:18:30;;;;;;;2.33;1.90;;;22.50;99.90;;;;;;4997877;28;20227;-87
2022/09/04 09:21:24;;;;;;;1.80;1.70;;;22.70;99.90;;;;;;4991907;28;20234;-87
2022/09/04 09:24:20;;;;;;;1.88;1.75;;;22.90;99.90;;;;;;4997568;28;20187;-87
2022/09/04 09:27:24;;;;;;;5.40;1.70;;;23.00;99.90;;;;;;4995424;28;20191;-87
2022/09/04 09:30:03;;;;;;;2.67;1.90;;;23.10;99.90;;;;;;5009681;28;20234;-87
2022/09/04 09:32:34;;;;;;;1.90;1.60;;;23.30;99.90;;;;;;4994100;28;20215;-87
2022/09/04 09:35:14;;;;;;;1.90;1.80;;;23.40;99.90;;;;;;4994774;28;20199;-87
2022/09/04 09:38:05;;;;;;;1.95;1.70;;;23.50;99.90;;;;;;5005006;28;20191;-87
2022/09/04 09:41:08;;;;;;;2.00;1.67;;;23.70;99.90;;;;;;5009356;28;20207;-87
2022/09/04 09:44:05;;;;;;;1.92;1.77;;;23.70;99.90;;;;;;5011105;28;20182;-87
2022/09/04 09:46:40;;;;;;;2.03;1.58;;;23.80;99.90;;;;;;5003174;28;20187;-87
2022/09/04 09:49:19;;;;;;;1.55;1.40;;;23.80;99.90;;;;;;5014404;28;20217;-87
2022/09/04 09:52:03;;;;;;;1.92;1.65;;;23.90;99.90;;;;;;4992769;28;20262;-87
2022/09/04 09:55:02;;;;;;;2.05;1.70;;;23.90;99.90;;;;;;5012403;28;20175;-87
2022/09/04 09:57:45;;;;;;;3.15;1.60;;;24.00;99.90;;;;;;5010466;28;20258;-87
2022/09/04 10:00:12;;;;;;;2.40;1.50;;;24.20;99.90;;;;;;5018391;28;20302;-86
2022/09/04 10:03:01;;;;;;;1.70;1.42;;;24.30;99.90;;;;;;5024983;28;20294;-91
2022/09/04 10:05:39;;;;;;;1.70;1.60;;;24.50;99.90;;;;;;4999379;28;20222;-91
2022/09/04 10:08:40;;;;;;;1.42;1.33;;;24.60;99.90;;;;;;4994103;28;20342;-92
2022/09/04 10:11:22;;;;;;;1.55;1.38;;;24.70;99.90;;;;;;5027226;28;20206;-93
2022/09/04 10:14:03;;;;;;;1.85;1.30;;;24.80;99.90;;;;;;5017478;28;20175;-92
2022/09/04 10:16:44;;;;;;;1.20;1.10;;;25.00;99.90;;;;;;5015399;28;20177;-86
2022/09/04 10:20:04;;;;;;;1.30;1.20;;;25.00;99.90;;;;;;5007486;28;20182;-86
2022/09/04 10:22:51;;;;;;;1.67;1.45;;;25.00;99.90;;;;;;4929715;29;20205;-84
2022/09/04 10:25:35;;;;;;;1.58;1.48;;;24.80;99.90;;;;;;4994887;28;20197;-86
2022/09/04 10:28:45;;;;;;;1.70;1.60;;;24.80;99.90;;;;;;5016612;28;20278;-86
2022/09/04 10:31:12;;;;;;;2.40;1.70;;;25.00;99.90;;;;;;5004252;28;20196;-90
2022/09/04 10:33:59;;;;;;;2.85;1.48;;;25.10;99.90;;;;;;5000336;28;20171;-89
2022/09/04 10:36:52;;;;;;;1.88;1.75;;;25.10;99.90;;;;;;5000892;28;20218;-90
2022/09/04 10:42:24;;;;;;;1.83;1.50;;;25.20;99.90;;;;;;5003812;28;20211;-88
2022/09/04 10:45:27;;;;;;;1.48;1.23;;;25.30;99.90;;;;;;5009700;28;20670;-89
2022/09/04 10:47:53;;;;;;;2.63;1.40;;;25.50;99.90;;;;;;5022799;28;20179;-89
2022/09/04 10:51:22;;;;;;;1.85;1.40;;;25.60;99.90;;;;;;4997446;28;20273;-89
2022/09/04 10:54:15;;;;;;;1.40;1.30;;;25.80;99.90;;;;;;4965592;28;20217;-89
2022/09/04 10:56:52;;;;;;;1.98;1.50;;;26.10;99.90;;;;;;5003987;28;20186;-89
2022/09/04 10:59:30;;;;;;;3.78;1.30;;;26.30;99.90;;;;;;5005881;28;20171;-89
2022/09/04 11:02:08;;;;;;;2.08;1.40;;;26.20;99.90;;;;;;5001525;28;20371;-90
2022/09/04 11:05:14;;;;;;;1.30;1.20;;;26.10;99.90;;;;;;4998392;28;20178;-89
2022/09/04 11:08:12;;;;;;;2.53;1.58;;;25.90;99.90;;;;;;4989236;28;20221;-89
2022/09/04 11:11:08;;;;;;;1.88;1.55;;;26.00;99.90;;;;;;5017544;28;20175;-89
2022/09/04 11:13:56;;;;;;;2.75;1.38;;;25.80;99.90;;;;;;4976377;28;20233;-89
2022/09/04 11:16:59;;;;;;;1.92;1.42;;;26.00;99.90;;;;;;5020854;28;20282;-89
2022/09/04 11:20:03;;;;;;;2.15;1.30;;;26.00;99.90;;;;;;5007473;28;20225;-89
2022/09/04 11:22:54;;;;;;;1.55;1.45;;;26.10;99.90;;;;;;5001529;28;20206;-89
2022/09/04 11:25:41;;;;;;;1.50;1.27;;;26.40;99.90;;;;;;5016951;28;20218;-89
2022/09/04 11:28:50;;;;;;;1.50;1.30;;;26.20;99.90;;;;;;5003397;28;20176;-89
2022/09/04 11:31:28;;;;;;;1.45;1.35;;;26.10;99.90;;;;;;5014199;28;20195;-89
2022/09/04 11:34:20;;;;;;;1.40;1.30;;;26.30;99.90;;;;;;5023863;28;20178;-89
2022/09/04 11:37:23;;;;;;;1.33;1.23;;;26.50;99.90;;;;;;5010710;28;20183;-89
2022/09/04 11:40:07;;;;;;;1.55;1.42;;;26.30;99.90;;;;;;4999967;28;20212;-89
2022/09/04 11:42:51;;;;;;;2.30;1.63;;;26.00;99.90;;;;;;5020254;28;20214;-89
2022/09/04 11:45:29;;;;;;;1.33;1.23;;;26.20;99.90;;;;;;5005077;28;20218;-89
2022/09/04 11:48:07;;;;;;;1.42;1.33;;;26.50;99.90;;;;;;5005047;28;20202;-89
2022/09/04 11:51:04;;;;;;;1.98;1.55;;;26.70;99.90;;;;;;5004817;28;20183;-89
2022/09/04 11:53:36;;;;;;;1.45;1.35;;;26.80;99.90;;;;;;5021123;28;20179;-89
2022/09/04 11:56:43;;;;;;;1.40;1.30;;;26.90;99.90;;;;;;5003239;28;20218;-88
2022/09/04 11:59:54;;;;;;;2.05;1.50;;;27.20;99.90;;;;;;5015574;28;20179;-89
2022/09/04 12:02:29;;;;;;;1.60;1.50;;;27.30;99.90;;;;;;4998628;28;20203;-88
2022/09/04 12:05:38;;;;;;;2.00;1.40;;;27.40;99.90;;;;;;5010172;28;20209;-89
2022/09/04 12:08:27;;;;;;;1.58;1.40;;;27.30;99.90;;;;;;5008146;28;20287;-88
2022/09/04 12:11:21;;;;;;;1.67;1.40;;;27.40;99.90;;;;;;5001496;28;20305;-87
2022/09/04 12:14:11;;;;;;;1.30;1.20;;;27.80;99.90;;;;;;4993787;28;20203;-87
2022/09/04 12:16:57;;;;;;;1.52;1.42;;;27.70;99.90;;;;;;4994271;28;20176;-88
2022/09/04 12:19:51;;;;;;;1.95;1.45;;;27.90;99.90;;;;;;5008611;28;20197;-88
2022/09/04 12:23:00;;;;;;;1.40;1.30;;;28.10;99.90;;;;;;5008791;28;20207;-87
2022/09/04 12:26:02;;;;;;;1.67;1.48;;;28.20;99.90;;;;;;4986374;28;20184;-87
2022/09/04 12:28:42;;;;;;;1.52;1.42;;;28.00;99.90;;;;;;4992271;28;20174;-88
2022/09/04 12:31:17;;;;;;;1.67;1.23;;;28.00;99.90;;;;;;5007208;28;20209;-88
2022/09/04 12:34:10;;;;;;;1.48;1.30;;;28.10;99.90;;;;;;4994681;28;20278;-88
2022/09/04 12:37:10;;;;;;;2.40;1.40;;;28.00;99.90;;;;;;4996720;28;20195;-88
2022/09/04 12:40:12;;;;;;;1.95;1.50;;;28.00;99.90;;;;;;4994795;28;20179;-88
2022/09/04 12:42:56;;;;;;;2.50;1.30;;;28.20;99.90;;;;;;4995465;28;20238;-88
2022/09/04 12:45:49;;;;;;;1.70;1.60;;;28.30;99.90;;;;;;4993399;28;20192;-88
2022/09/04 12:48:59;;;;;;;1.52;1.40;;;28.50;99.90;;;;;;4965120;28;20195;-88
2022/09/04 12:51:36;;;;;;;1.50;1.40;;;28.30;99.90;;;;;;4940605;28;20204;-88
2022/09/04 12:54:33;;;;;;;1.83;1.40;;;28.40;99.90;;;;;;4932092;29;20189;-88
2022/09/04 12:57:14;;;;;;;1.88;1.30;;;28.50;99.90;;;;;;4996407;28;21332;-88
2022/09/04 12:59:53;;;;;;;1.67;1.30;;;28.60;99.90;;;;;;5017586;28;20179;-87
2022/09/04 13:02:26;;;;;;;1.52;1.40;;;28.50;99.90;;;;;;5003017;28;20203;-87
2022/09/04 13:04:58;;;;;;;1.60;1.50;;;28.60;99.90;;;;;;5016612;28;20182;-88
2022/09/04 13:07:34;;;;;;;1.38;1.27;;;28.80;99.90;;;;;;5008539;28;20186;-87
2022/09/04 13:10:37;;;;;;;1.55;1.45;;;29.00;99.90;;;;;;5017500;28;20187;-88
2022/09/04 13:13:33;;;;;;;2.60;1.52;;;28.80;99.90;;;;;;5000942;28;20179;-88
2022/09/04 13:16:29;;;;;;;2.05;1.38;;;28.50;99.90;;;;;;5001669;28;20337;-88
2022/09/04 13:19:14;;;;;;;2.63;1.25;;;27.90;99.90;;;;;;4999163;28;20217;-87
2022/09/04 13:22:05;;;;;;;2.85;1.55;;;28.00;99.90;;;;;;4997035;28;20226;-87
2022/09/04 13:24:34;;;;;;;1.50;1.40;;;27.90;99.90;;;;;;5007786;28;20265;-88
2022/09/04 13:27:14;;;;;;;1.48;1.35;;;27.90;99.90;;;;;;5030527;28;20174;-88
2022/09/04 13:30:00;;;;;;;1.73;1.63;;;28.30;99.90;;;;;;5007705;28;20185;-88
2022/09/04 13:33:02;;;;;;;1.70;1.60;;;28.50;99.90;;;;;;5017697;28;20209;-88
2022/09/04 13:35:48;;;;;;;1.50;1.40;;;28.80;99.90;;;;;;4962309;28;20194;-88
2022/09/04 13:38:42;;;;;;;3.42;1.50;;;28.90;99.90;;;;;;5007224;28;20217;-88
2022/09/04 13:41:54;;;;;;;1.80;1.35;;;29.10;99.90;;;;;;5003125;28;20225;-88
2022/09/04 13:45:00;;;;;;;1.88;1.55;;;29.20;99.90;;;;;;4976124;28;20217;-88
2022/09/04 13:47:35;;;;;;;1.40;1.30;;;29.10;99.90;;;;;;4998870;28;20178;-88
2022/09/04 13:50:18;;;;;;;1.73;1.50;;;29.10;99.90;;;;;;5010060;28;20662;-88
2022/09/04 13:53:04;;;;;;;1.55;1.25;;;29.10;98.90;;;;;;5002385;28;20209;-88
2022/09/04 13:55:53;;;;;;;1.85;1.40;;;29.30;99.00;;;;;;5005888;28;20268;-88
2022/09/04 13:58:48;;;;;;;1.52;1.30;;;29.70;99.60;;;;;;4993374;28;20282;-88
2022/09/04 14:01:20;;;;;;;1.42;1.02;;;29.80;98.50;;;;;;5005104;28;20210;-89
2022/09/04 14:03:54;;;;;;;1.67;1.33;;;30.00;99.00;;;;;;5008130;28;20179;-88
2022/09/04 14:06:23;;;;;;;1.25;1.15;;;30.30;98.60;;;;;;5002924;28;20190;-88
2022/09/04 14:08:52;;;;;;;1.60;1.50;;;30.50;98.10;;;;;;5001273;28;20266;-88
2022/09/04 14:12:01;;;;;;;1.48;1.35;;;30.30;96.80;;;;;;4997317;28;20219;-89
2022/09/04 14:14:54;;;;;;;1.63;1.52;;;30.30;97.90;;;;;;5000781;28;20234;-89
2022/09/04 14:17:30;;;;;;;2.10;1.30;;;30.30;97.10;;;;;;4997824;28;20182;-89
2022/09/04 14:20:15;;;;;;;1.48;1.38;;;30.10;97.80;;;;;;4985506;28;20214;-89
2022/09/04 14:23:20;;;;;;;1.92;1.30;;;30.40;97.40;;;;;;5012523;28;20570;-89
2022/09/04 14:26:02;;;;;;;1.75;1.65;;;30.70;96.90;;;;;;4979831;28;20273;-89
2022/09/04 14:29:14;;;;;;;1.50;1.40;;;30.40;96.80;;;;;;5000798;28;20180;-89
2022/09/04 14:32:18;;;;;;;1.48;1.30;;;30.30;95.90;;;;;;4954671;28;20207;-89
2022/09/04 14:35:09;;;;;;;1.50;1.40;;;29.90;96.40;;;;;;5006802;28;20187;-89
2022/09/04 14:37:56;;;;;;;3.00;1.60;;;29.60;97.60;;;;;;5014284;28;20183;-89